createdAt,value
2019-05-19T00:01:01.098Z,233
2019-05-19T00:02:14.174Z,214.1
2019-05-19T00:03:26.381Z,209.8
2019-05-19T00:04:38.582Z,291.1
2019-05-19T00:05:50.781Z,227.4
2019-05-19T00:07:02.979Z,193.2
2019-05-19T00:08:15.017Z,250.4
2019-05-19T00:09:27.379Z,240
2019-05-19T00:10:39.580Z,266.9
2019-05-19T00:11:51.781Z,333.5
2019-05-19T00:13:03.987Z,312
2019-05-19T00:14:16.181Z,212.7
2019-05-19T00:15:28.377Z,241.6
2019-05-19T00:16:40.579Z,270.9
2019-05-19T00:17:52.779Z,251.6
2019-05-19T00:19:04.989Z,308.2
2019-05-19T00:20:17.189Z,337.1
2019-05-19T00:21:29.381Z,250.8
2019-05-19T00:22:41.590Z,338
2019-05-19T00:23:53.801Z,311
2019-05-19T00:25:05.981Z,231.5
2019-05-19T00:26:18.187Z,292.2
2019-05-19T00:27:30.382Z,252.7
2019-05-19T00:28:42.590Z,255.5
2019-05-19T00:29:54.788Z,314.9
2019-05-19T00:31:06.982Z,268.4
2019-05-19T00:32:19.207Z,265.8
2019-05-19T00:33:31.389Z,209.5
2019-05-19T00:34:43.591Z,277.5
2019-05-19T00:35:55.787Z,264.3
2019-05-19T00:37:07.982Z,232.6
2019-05-19T00:38:20.190Z,212.2
2019-05-19T00:39:32.398Z,221.4
2019-05-19T00:40:44.605Z,222
2019-05-19T00:41:56.802Z,228.8
2019-05-19T00:43:08.999Z,200.8
2019-05-19T00:44:21.191Z,259.1
2019-05-19T00:45:33.403Z,195.4
2019-05-19T00:46:45.598Z,275.6
2019-05-19T00:47:57.788Z,239.7
2019-05-19T00:49:09.999Z,223.1
2019-05-19T00:50:22.019Z,217.2
2019-05-19T00:51:34.039Z,233
2019-05-19T00:52:46.598Z,205.8
2019-05-19T00:53:58.793Z,248.8
2019-05-19T00:55:11.009Z,247.4
2019-05-19T00:56:23.248Z,215.5
2019-05-19T00:57:35.411Z,227.1
2019-05-19T00:58:47.610Z,221.3
2019-05-19T00:59:59.799Z,235.8
2019-05-19T01:01:12.006Z,364
2019-05-19T01:02:24.208Z,224.3
2019-05-19T01:03:36.407Z,267.6
2019-05-19T01:04:48.606Z,223.6
2019-05-19T01:06:00.809Z,230.9
2019-05-19T01:07:13.009Z,210.3
2019-05-19T01:08:25.207Z,188.7
2019-05-19T01:09:37.406Z,217.7
2019-05-19T01:10:49.604Z,237.2
2019-05-19T01:12:01.806Z,213.5
2019-05-19T01:13:13.997Z,189.5
2019-05-19T01:14:26.205Z,291
2019-05-19T01:15:38.406Z,209.9
2019-05-19T01:16:50.614Z,251.2
2019-05-19T01:18:02.814Z,245.5
2019-05-19T01:19:15.007Z,193.5
2019-05-19T01:20:27.213Z,250.9
2019-05-19T01:21:39.415Z,250.7
2019-05-19T01:22:51.607Z,280.6
2019-05-19T01:24:03.815Z,225
2019-05-19T01:25:16.017Z,274.3
2019-05-19T01:26:28.215Z,208.1
2019-05-19T01:27:40.415Z,215.3
2019-05-19T01:28:52.061Z,326.8
2019-05-19T01:30:04.812Z,241.6
2019-05-19T01:31:17.010Z,324
2019-05-19T01:32:29.215Z,284.5
2019-05-19T01:33:41.423Z,227
2019-05-19T01:34:53.062Z,268.9
2019-05-19T01:36:05.827Z,248.3
2019-05-19T01:37:18.024Z,257.1
2019-05-19T01:38:30.225Z,238.5
2019-05-19T01:39:42.421Z,238.5
2019-05-19T01:40:54.622Z,221
2019-05-19T01:42:06.816Z,251.6
2019-05-19T01:43:19.022Z,242
2019-05-19T01:44:31.230Z,196.8
2019-05-19T01:45:43.422Z,199.5
2019-05-19T01:46:55.622Z,186.9
2019-05-19T01:48:07.826Z,188.5
2019-05-19T01:49:20.022Z,193.2
2019-05-19T01:50:32.232Z,202.5
2019-05-19T01:51:44.425Z,181.4
2019-05-19T01:52:56.633Z,169.7
2019-05-19T01:54:08.833Z,152.5
2019-05-19T01:55:21.117Z,170
2019-05-19T01:56:33.023Z,159.4
2019-05-19T01:57:45.424Z,169.7
2019-05-19T01:58:57.631Z,175.4
2019-05-19T02:00:09.083Z,179.3
2019-05-19T02:01:22.033Z,202
2019-05-19T02:02:34.230Z,177.9
2019-05-19T02:03:46.435Z,155.1
2019-05-19T02:04:58.637Z,158.3
2019-05-19T02:06:10.849Z,162.1
2019-05-19T02:07:23.042Z,191
2019-05-19T02:08:35.239Z,214.5
2019-05-19T02:09:47.440Z,274.4
2019-05-19T02:10:59.633Z,204.5
2019-05-19T02:12:11.840Z,185.8
2019-05-19T02:13:24.041Z,176.1
2019-05-19T02:14:36.235Z,189.5
2019-05-19T02:15:48.438Z,202.3
2019-05-19T02:17:00.640Z,185.7
2019-05-19T02:18:12.083Z,218.4
2019-05-19T02:19:25.004Z,199
2019-05-19T02:20:37.245Z,294
2019-05-19T02:21:49.045Z,330.4
2019-05-19T02:23:01.064Z,261.8
2019-05-19T02:24:13.851Z,301.5
2019-05-19T02:25:26.052Z,279.7
2019-05-19T02:26:38.264Z,352.8
2019-05-19T02:27:50.449Z,261.6
2019-05-19T02:29:02.650Z,311.7
2019-05-19T02:30:14.850Z,331.4
2019-05-19T02:31:27.006Z,352.9
2019-05-19T02:32:39.248Z,294.8
2019-05-19T02:33:51.452Z,297.9
2019-05-19T02:35:03.671Z,287.8
2019-05-19T02:36:15.856Z,209.2
2019-05-19T02:37:28.056Z,265.9
2019-05-19T02:38:40.261Z,325
2019-05-19T02:39:52.450Z,364.5
2019-05-19T02:41:04.065Z,226.5
2019-05-19T02:42:16.856Z,225.1
2019-05-19T02:43:29.050Z,213.7
2019-05-19T02:44:41.262Z,231.3
2019-05-19T02:45:53.456Z,303.6
2019-05-19T02:47:05.652Z,353
2019-05-19T02:48:17.872Z,392.4
2019-05-19T02:49:30.058Z,407.5
2019-05-19T02:50:42.026Z,425
2019-05-19T02:51:54.466Z,357.5
2019-05-19T02:53:06.666Z,346.9
2019-05-19T02:54:18.866Z,223.5
2019-05-19T02:55:31.066Z,283.9
2019-05-19T02:56:43.266Z,345.1
2019-05-19T02:57:55.471Z,210.7
2019-05-19T02:59:07.675Z,281.4
2019-05-19T03:00:19.864Z,272.4
2019-05-19T03:01:32.066Z,374.5
2019-05-19T03:02:44.258Z,341.3
2019-05-19T03:03:56.468Z,336.3
2019-05-19T03:05:08.674Z,272.1
2019-05-19T03:06:20.879Z,343.8
2019-05-19T03:07:33.075Z,330.6
2019-05-19T03:08:45.266Z,257.8
2019-05-19T03:09:57.474Z,220.4
2019-05-19T03:11:09.676Z,278.1
2019-05-19T03:12:21.868Z,345
2019-05-19T03:13:34.075Z,312
2019-05-19T03:14:46.279Z,306.7
2019-05-19T03:15:58.473Z,316.7
2019-05-19T03:17:10.675Z,384.2
2019-05-19T03:18:22.869Z,378.3
2019-05-19T03:19:35.082Z,431.6
2019-05-19T03:20:47.279Z,310
2019-05-19T03:21:59.485Z,511.4
2019-05-19T03:23:11.683Z,463
2019-05-19T03:24:23.890Z,439.3
2019-05-19T03:25:36.074Z,494
2019-05-19T03:26:48.289Z,524.4
2019-05-19T03:28:00.482Z,454.7
2019-05-19T03:29:12.683Z,431.7
2019-05-19T03:30:24.885Z,391.1
2019-05-19T03:31:37.075Z,380.2
2019-05-19T03:32:49.281Z,388.4
2019-05-19T03:34:01.479Z,384
2019-05-19T03:35:13.675Z,336.8
2019-05-19T03:36:25.897Z,297.7
2019-05-19T03:37:38.085Z,354.5
2019-05-19T03:38:50.293Z,274.7
2019-05-19T03:40:02.049Z,316.4
2019-05-19T03:41:14.685Z,232.8
2019-05-19T03:42:26.891Z,253
2019-05-19T03:43:39.096Z,225.2
2019-05-19T03:44:51.291Z,184.2
2019-05-19T03:46:03.491Z,320.7
2019-05-19T03:47:15.692Z,192.2
2019-05-19T03:48:27.923Z,197.5
2019-05-19T03:49:40.089Z,192.1
2019-05-19T03:50:52.303Z,264.8
2019-05-19T03:52:04.499Z,206.7
2019-05-19T03:53:16.701Z,189.6
2019-05-19T03:54:28.894Z,152.8
2019-05-19T03:55:41.101Z,177.9
2019-05-19T03:56:53.301Z,174.6
2019-05-19T03:58:05.499Z,222.7
2019-05-19T03:59:17.701Z,181.5
2019-05-19T04:00:29.892Z,178.3
2019-05-19T04:01:42.101Z,156.9
2019-05-19T04:02:54.030Z,158.1
2019-05-19T04:04:06.049Z,163.3
2019-05-19T04:05:18.700Z,224.6
2019-05-19T04:06:30.901Z,145.3
2019-05-19T04:07:43.112Z,183.4
2019-05-19T04:08:55.309Z,193.8
2019-05-19T04:10:07.502Z,180.3
2019-05-19T04:11:19.707Z,162.5
2019-05-19T04:12:31.908Z,120
2019-05-19T04:13:44.112Z,134.6
2019-05-19T04:14:56.311Z,201.4
2019-05-19T04:16:08.508Z,163.4
2019-05-19T04:17:20.701Z,151.6
2019-05-19T04:18:32.908Z,168.4
2019-05-19T04:19:45.107Z,125.6
2019-05-19T04:20:57.312Z,115.2
2019-05-19T04:22:09.508Z,121.2
2019-05-19T04:23:21.710Z,120.8
2019-05-19T04:24:33.918Z,100.7
2019-05-19T04:25:46.121Z,110.1
2019-05-19T04:26:58.312Z,87.8
2019-05-19T04:28:10.515Z,117.9
2019-05-19T04:29:22.710Z,101.7
2019-05-19T04:30:34.091Z,94.5
2019-05-19T04:31:47.115Z,108.8
2019-05-19T04:32:59.307Z,117.6
2019-05-19T04:34:11.517Z,115.3
2019-05-19T04:35:23.071Z,101.4
2019-05-19T04:36:35.927Z,123.7
2019-05-19T04:37:48.126Z,87.8
2019-05-19T04:39:00.317Z,111.8
2019-05-19T04:40:12.534Z,122.3
2019-05-19T04:41:24.073Z,118.9
2019-05-19T04:42:36.927Z,106.5
2019-05-19T04:43:49.012Z,136
2019-05-19T04:45:01.327Z,133.4
2019-05-19T04:46:13.526Z,106.4
2019-05-19T04:47:25.722Z,99
2019-05-19T04:48:37.093Z,138.5
2019-05-19T04:49:50.013Z,116
2019-05-19T04:51:02.003Z,144
2019-05-19T04:52:14.526Z,122.9
2019-05-19T04:53:26.734Z,130.1
2019-05-19T04:54:39.025Z,100.4
2019-05-19T04:55:51.134Z,116.4
2019-05-19T04:57:03.330Z,109.1
2019-05-19T04:58:15.525Z,95.6
2019-05-19T04:59:27.734Z,77.9
2019-05-19T05:00:39.946Z,72.2
2019-05-19T05:01:52.138Z,63.8
2019-05-19T05:03:04.338Z,71.9
2019-05-19T05:04:16.544Z,88.8
2019-05-19T05:05:28.742Z,86.9
2019-05-19T05:06:40.946Z,72.3
2019-05-19T05:07:53.136Z,79.8
2019-05-19T05:09:05.342Z,85.9
2019-05-19T05:10:17.542Z,80.2
2019-05-19T05:11:29.744Z,94.7
2019-05-19T05:12:41.952Z,95.2
2019-05-19T05:13:54.152Z,87.5
2019-05-19T05:15:06.354Z,97.2
2019-05-19T05:16:18.552Z,94.3
2019-05-19T05:17:30.758Z,81.8
2019-05-19T05:18:42.952Z,90.7
2019-05-19T05:19:55.152Z,99.5
2019-05-19T05:21:07.034Z,96.8
2019-05-19T05:22:19.552Z,98.6
2019-05-19T05:23:31.750Z,101
2019-05-19T05:24:43.953Z,95.4
2019-05-19T05:25:56.162Z,82.7
2019-05-19T05:27:08.370Z,102.2
2019-05-19T05:28:20.056Z,89.6
2019-05-19T05:29:32.758Z,102.3
2019-05-19T05:30:44.954Z,108.9
2019-05-19T05:31:57.158Z,109.1
2019-05-19T05:33:09.366Z,114.8
2019-05-19T05:34:21.560Z,101.3
2019-05-19T05:35:33.762Z,117
2019-05-19T05:36:45.968Z,97.6
2019-05-19T05:37:58.166Z,118.6
2019-05-19T05:39:10.370Z,106.9
2019-05-19T05:40:22.569Z,141.7
2019-05-19T05:41:34.076Z,124.2
2019-05-19T05:42:46.968Z,148.8
2019-05-19T05:43:59.162Z,107
2019-05-19T05:45:11.370Z,138.8
2019-05-19T05:46:23.572Z,100.3
2019-05-19T05:47:35.768Z,117.1
2019-05-19T05:48:47.981Z,125.8
2019-05-19T05:50:00.170Z,126.1
2019-05-19T05:51:12.376Z,139
2019-05-19T05:52:24.580Z,114.2
2019-05-19T05:53:36.772Z,116.1
2019-05-19T05:54:48.980Z,128
2019-05-19T05:56:01.178Z,156.3
2019-05-19T05:57:13.377Z,164
2019-05-19T05:58:25.579Z,149.8
2019-05-19T05:59:37.772Z,124
2019-05-19T06:00:49.985Z,145.1
2019-05-19T06:02:02.187Z,119.3
2019-05-19T06:03:14.387Z,129
2019-05-19T06:04:26.586Z,132.1
2019-05-19T06:05:38.786Z,120.1
2019-05-19T06:06:50.981Z,136.2
2019-05-19T06:08:03.001Z,162.7
2019-05-19T06:09:15.387Z,167.5
2019-05-19T06:10:27.586Z,163
2019-05-19T06:11:39.784Z,134
2019-05-19T06:12:51.978Z,128.6
2019-05-19T06:14:04.196Z,107.1
2019-05-19T06:15:16.397Z,124.6
2019-05-19T06:16:28.591Z,93.3
2019-05-19T06:17:40.798Z,129.8
2019-05-19T06:18:52.988Z,142.6
2019-05-19T06:20:05.205Z,124.6
2019-05-19T06:21:17.397Z,144.6
2019-05-19T06:22:29.588Z,151.3
2019-05-19T06:23:41.796Z,144.7
2019-05-19T06:24:53.998Z,148.9
2019-05-19T06:26:06.205Z,133.5
2019-05-19T06:27:18.403Z,107.9
2019-05-19T06:28:30.609Z,95.3
2019-05-19T06:29:42.804Z,103.9
2019-05-19T06:30:55.005Z,103.3
2019-05-19T06:32:07.205Z,79.2
2019-05-19T06:33:19.408Z,135.4
2019-05-19T06:34:31.605Z,115.3
2019-05-19T06:35:43.799Z,99.5
2019-05-19T06:36:56.013Z,103.7
2019-05-19T06:38:08.213Z,76.4
2019-05-19T06:39:20.406Z,92
2019-05-19T06:40:32.617Z,92.4
2019-05-19T06:41:44.819Z,80.9
2019-05-19T06:42:57.015Z,72.6
2019-05-19T06:44:09.211Z,67.7
2019-05-19T06:45:21.419Z,79.4
2019-05-19T06:46:33.613Z,78.6
2019-05-19T06:47:45.813Z,72.2
2019-05-19T06:48:58.021Z,59.9
2019-05-19T06:50:10.223Z,53.7
2019-05-19T06:51:22.417Z,66.7
2019-05-19T06:52:34.625Z,60.6
2019-05-19T06:53:46.824Z,59.4
2019-05-19T06:54:59.022Z,73.7
2019-05-19T06:56:11.223Z,92.7
2019-05-19T06:57:23.423Z,74.3
2019-05-19T06:58:35.615Z,74.7
2019-05-19T06:59:47.082Z,80.4
2019-05-19T07:01:00.002Z,79.9
2019-05-19T07:02:12.231Z,73.6
2019-05-19T07:03:24.429Z,72.9
2019-05-19T07:04:36.632Z,84.9
2019-05-19T07:05:48.837Z,78.3
2019-05-19T07:07:01.030Z,64.4
2019-05-19T07:08:13.673Z,81.2
2019-05-19T07:09:25.437Z,66.6
2019-05-19T07:10:37.629Z,79.5
2019-05-19T07:11:49.852Z,71.4
2019-05-19T07:13:02.044Z,57
2019-05-19T07:14:14.236Z,51.6
2019-05-19T07:15:26.442Z,50.6
2019-05-19T07:16:38.637Z,59.4
2019-05-19T07:19:03.110Z,48.4
2019-05-19T07:20:15.242Z,51.6
2019-05-19T07:21:27.434Z,48
2019-05-19T07:22:39.654Z,51.2
2019-05-19T07:23:51.849Z,62.3
2019-05-19T07:25:04.044Z,51.3
2019-05-19T07:26:16.247Z,53.8
2019-05-19T07:27:28.441Z,61.4
2019-05-19T07:28:40.065Z,61.5
2019-05-19T07:29:52.848Z,61.8
2019-05-19T07:31:05.045Z,61.9
2019-05-19T07:32:17.259Z,57.3
2019-05-19T07:33:29.459Z,48.6
2019-05-19T07:34:41.659Z,53.9
2019-05-19T07:35:53.857Z,58.7
2019-05-19T07:37:06.009Z,55.9
2019-05-19T07:38:18.258Z,54.7
2019-05-19T07:39:30.456Z,48.9
2019-05-19T07:40:42.657Z,46.3
2019-05-19T07:41:54.883Z,51.1
2019-05-19T07:43:07.068Z,51.5
2019-05-19T07:44:19.026Z,45.1
2019-05-19T07:45:31.466Z,50
2019-05-19T07:46:43.669Z,57.3
2019-05-19T07:47:55.865Z,45.7
2019-05-19T07:49:08.068Z,46.5
2019-05-19T07:50:20.263Z,45.8
2019-05-19T07:51:32.492Z,50
2019-05-19T07:52:44.662Z,53.7
2019-05-19T07:53:56.870Z,47.9
2019-05-19T07:55:09.075Z,38.2
2019-05-19T07:56:21.270Z,44.2
2019-05-19T07:57:33.474Z,43.4
2019-05-19T07:58:45.673Z,38.6
2019-05-19T07:59:57.870Z,42.6
2019-05-19T08:01:10.074Z,45.6
2019-05-19T08:02:22.278Z,48.3
2019-05-19T08:03:34.476Z,43.3
2019-05-19T08:04:46.674Z,46.5
2019-05-19T08:05:58.879Z,40.1
2019-05-19T08:07:11.095Z,42.2
2019-05-19T08:08:23.284Z,47.2
2019-05-19T08:09:35.484Z,43.4
2019-05-19T08:10:47.684Z,49.8
2019-05-19T08:11:59.884Z,41.3
2019-05-19T08:13:12.080Z,44.3
2019-05-19T08:14:24.282Z,37.9
2019-05-19T08:15:36.497Z,31.2
2019-05-19T08:16:48.689Z,31.2
2019-05-19T08:18:00.894Z,28.1
2019-05-19T08:19:13.094Z,30.5
2019-05-19T08:20:25.294Z,29.2
2019-05-19T08:21:37.494Z,30.4
2019-05-19T08:22:49.684Z,27.9
2019-05-19T08:24:01.897Z,32
2019-05-19T08:25:14.094Z,26.9
2019-05-19T08:26:26.297Z,28.7
2019-05-19T08:27:38.502Z,32.8
2019-05-19T08:28:50.704Z,30.8
2019-05-19T08:30:02.900Z,29.6
2019-05-19T08:31:15.102Z,29.4
2019-05-19T08:32:27.302Z,28.3
2019-05-19T08:33:39.506Z,28.8
2019-05-19T08:34:51.702Z,29.4
2019-05-19T08:36:03.896Z,27.2
2019-05-19T08:37:16.118Z,26.6
2019-05-19T08:38:28.312Z,24.6
2019-05-19T08:39:40.051Z,25.1
2019-05-19T08:40:52.713Z,25.9
2019-05-19T08:42:04.907Z,24.9
2019-05-19T08:43:17.113Z,26.7
2019-05-19T08:44:29.314Z,28.3
2019-05-19T08:45:41.503Z,28.1
2019-05-19T08:46:53.711Z,29.8
2019-05-19T08:48:05.926Z,31.9
2019-05-19T08:49:18.120Z,32.3
2019-05-19T08:50:30.320Z,31.4
2019-05-19T08:51:42.052Z,32.4
2019-05-19T08:52:54.072Z,27.4
2019-05-19T08:54:06.920Z,27.5
2019-05-19T08:55:19.121Z,29.8
2019-05-19T08:56:31.325Z,29.1
2019-05-19T08:57:43.051Z,27.5
2019-05-19T08:58:55.725Z,30.4
2019-05-19T09:00:07.929Z,31
2019-05-19T09:01:20.129Z,29.1
2019-05-19T09:02:32.324Z,28.8
2019-05-19T09:03:44.530Z,32.3
2019-05-19T09:04:56.721Z,28.6
2019-05-19T09:06:08.927Z,31.2
2019-05-19T09:07:21.126Z,33.2
2019-05-19T09:08:33.331Z,31.8
2019-05-19T09:09:45.540Z,33.3
2019-05-19T09:10:57.737Z,30.4
2019-05-19T09:12:09.937Z,32.3
2019-05-19T09:13:22.141Z,28.8
2019-05-19T09:14:34.329Z,27.3
2019-05-19T09:15:46.550Z,27.4
2019-05-19T09:16:58.738Z,28.2
2019-05-19T09:18:10.947Z,27
2019-05-19T09:19:23.150Z,28.8
2019-05-19T09:20:35.349Z,26.3
2019-05-19T09:21:47.541Z,28.4
2019-05-19T09:22:59.749Z,27.4
2019-05-19T09:24:11.949Z,25.9
2019-05-19T09:25:24.147Z,25.5
2019-05-19T09:26:36.034Z,25
2019-05-19T09:27:48.539Z,26.5
2019-05-19T09:29:00.747Z,27.8
2019-05-19T09:30:12.094Z,28.3
2019-05-19T09:31:25.138Z,28
2019-05-19T09:32:37.346Z,27.4
2019-05-19T09:33:49.054Z,32.6
2019-05-19T09:35:01.740Z,33.4
2019-05-19T09:36:13.939Z,32.6
2019-05-19T09:37:26.128Z,30.9
2019-05-19T09:38:38.335Z,31.7
2019-05-19T09:39:50.537Z,32.7
2019-05-19T09:41:02.735Z,30
2019-05-19T09:42:14.933Z,31.3
2019-05-19T09:43:27.134Z,31.3
2019-05-19T09:44:39.325Z,32.6
2019-05-19T09:45:51.537Z,30
2019-05-19T09:47:03.073Z,31.6
2019-05-19T09:48:15.925Z,32.1
2019-05-19T09:49:28.129Z,32.6
2019-05-19T09:50:40.316Z,30.1
2019-05-19T09:51:52.522Z,30.6
2019-05-19T09:53:04.725Z,30
2019-05-19T09:54:16.918Z,29.9
2019-05-19T09:55:29.123Z,33.7
2019-05-19T09:56:41.329Z,30.2
2019-05-19T09:57:53.524Z,31
2019-05-19T09:59:05.716Z,31
2019-05-19T10:00:17.903Z,29.2
2019-05-19T10:01:30.111Z,30.9
2019-05-19T10:02:42.312Z,32.4
2019-05-19T10:03:54.512Z,33.1
2019-05-19T10:05:06.712Z,30
2019-05-19T10:06:18.913Z,32
2019-05-19T10:07:31.112Z,32.9
2019-05-19T10:08:43.313Z,27.6
2019-05-19T10:09:55.505Z,27.4
2019-05-19T10:11:07.703Z,28
2019-05-19T10:12:19.902Z,27.6
2019-05-19T10:13:32.093Z,26.7
2019-05-19T10:14:44.303Z,27.3
2019-05-19T10:15:56.503Z,27.9
2019-05-19T10:17:08.695Z,30.7
2019-05-19T10:18:20.906Z,31.6
2019-05-19T10:19:33.097Z,29.9
2019-05-19T10:20:45.301Z,30.9
2019-05-19T10:21:57.503Z,33.5
2019-05-19T10:23:09.685Z,34.5
2019-05-19T10:24:21.891Z,33.1
2019-05-19T10:25:34.085Z,33.9
2019-05-19T10:26:46.301Z,35.1
2019-05-19T10:27:58.492Z,34.6
2019-05-19T10:29:10.683Z,34.7
2019-05-19T10:30:22.894Z,34.5
2019-05-19T10:31:35.089Z,35
2019-05-19T10:32:47.289Z,37.4
2019-05-19T10:33:59.489Z,37
2019-05-19T10:35:11.693Z,36.1
2019-05-19T10:36:23.875Z,34.9
2019-05-19T10:37:36.083Z,39.1
2019-05-19T10:38:48.279Z,36.6
2019-05-19T10:40:00.481Z,36.2
2019-05-19T10:41:12.703Z,37
2019-05-19T10:42:24.883Z,35.3
2019-05-19T10:43:37.079Z,36.7
2019-05-19T10:44:49.280Z,37.8
2019-05-19T10:46:01.471Z,41.2
2019-05-19T10:47:13.068Z,38.7
2019-05-19T10:48:25.879Z,35.6
2019-05-19T10:49:38.072Z,37.6
2019-05-19T10:50:50.270Z,37.9
2019-05-19T10:52:02.462Z,37
2019-05-19T10:53:14.662Z,39.5
2019-05-19T10:54:26.871Z,39.1
2019-05-19T10:55:39.069Z,40.6
2019-05-19T10:56:51.269Z,37.9
2019-05-19T10:58:03.467Z,38.6
2019-05-19T10:59:15.660Z,38.4
2019-05-19T11:00:27.870Z,36.5
2019-05-19T11:01:40.071Z,40.4
2019-05-19T11:02:52.259Z,39.7
2019-05-19T11:04:04.464Z,39.1
2019-05-19T11:05:16.656Z,38.2
2019-05-19T11:06:28.859Z,39.3
2019-05-19T11:07:41.057Z,39.6
2019-05-19T11:08:53.249Z,39.5
2019-05-19T11:10:05.455Z,40.7
2019-05-19T11:11:17.658Z,38.9
2019-05-19T11:12:29.854Z,37.8
2019-05-19T11:13:42.051Z,38.4
2019-05-19T11:14:54.253Z,39.7
2019-05-19T11:16:06.445Z,42.1
2019-05-19T11:17:18.646Z,38.1
2019-05-19T11:18:30.848Z,42.2
2019-05-19T11:19:43.045Z,37.2
2019-05-19T11:20:55.301Z,38.6
2019-05-19T11:22:07.440Z,41.2
2019-05-19T11:23:19.649Z,40.2
2019-05-19T11:24:31.850Z,37.8
2019-05-19T11:25:44.041Z,38
2019-05-19T11:26:56.245Z,35.9
2019-05-19T11:28:08.430Z,35.5
2019-05-19T11:29:20.637Z,38.4
2019-05-19T11:30:32.833Z,39
2019-05-19T11:31:45.032Z,42.6
2019-05-19T11:32:57.238Z,41.6
2019-05-19T11:34:09.429Z,41.9
2019-05-19T11:35:21.636Z,40.7
2019-05-19T11:36:33.835Z,44.9
2019-05-19T11:37:46.028Z,44.6
2019-05-19T11:38:58.236Z,46.3
2019-05-19T11:40:10.427Z,45.6
2019-05-19T11:41:22.624Z,44.8
2019-05-19T11:42:34.824Z,47.1
2019-05-19T11:43:47.030Z,47.4
2019-05-19T11:44:59.219Z,45.7
2019-05-19T11:46:11.042Z,48.4
2019-05-19T11:47:23.625Z,46.9
2019-05-19T11:48:35.824Z,47.5
2019-05-19T11:49:48.026Z,46.9
2019-05-19T11:51:00.021Z,47
2019-05-19T11:52:12.426Z,45.3
2019-05-19T11:53:24.613Z,48.3
2019-05-19T11:54:36.809Z,49
2019-05-19T11:55:49.001Z,50.5
2019-05-19T11:57:01.209Z,48.7
2019-05-19T11:58:13.415Z,48.1
2019-05-19T11:59:25.613Z,49
2019-05-19T12:00:37.082Z,42.3
2019-05-19T12:01:50.012Z,43.2
2019-05-19T12:03:02.021Z,42.6
2019-05-19T12:04:14.413Z,44.9
2019-05-19T12:05:26.611Z,46.5
2019-05-19T12:06:38.797Z,44.2
2019-05-19T12:07:50.996Z,43.4
2019-05-19T12:09:03.204Z,44.5
2019-05-19T12:10:15.405Z,44.6
2019-05-19T12:11:27.603Z,43.7
2019-05-19T12:12:39.803Z,42.6
2019-05-19T12:13:51.994Z,43.4
2019-05-19T12:15:04.204Z,44.9
2019-05-19T12:16:16.402Z,43.2
2019-05-19T12:17:28.600Z,43.3
2019-05-19T12:19:52.984Z,44.3
2019-05-19T12:21:05.196Z,42.3
2019-05-19T12:22:17.393Z,41.1
2019-05-19T12:23:29.584Z,41.8
2019-05-19T12:24:41.794Z,42.4
2019-05-19T12:25:53.994Z,42.4
2019-05-19T12:27:06.203Z,38.9
2019-05-19T12:28:18.429Z,37.6
2019-05-19T12:29:30.587Z,36.8
2019-05-19T12:30:42.792Z,38.2
2019-05-19T12:31:54.994Z,39.6
2019-05-19T12:33:07.018Z,38.9
2019-05-19T12:34:19.038Z,37.3
2019-05-19T12:35:31.582Z,38
2019-05-19T12:36:43.782Z,39.5
2019-05-19T12:37:55.987Z,38.7
2019-05-19T12:39:08.018Z,38.9
2019-05-19T12:40:20.384Z,38.6
2019-05-19T12:41:32.581Z,40.5
2019-05-19T12:42:44.077Z,38
2019-05-19T12:43:56.981Z,36.4
2019-05-19T12:45:09.180Z,36.6
2019-05-19T12:46:21.382Z,35.8
2019-05-19T12:47:33.058Z,36.2
2019-05-19T12:48:45.765Z,36
2019-05-19T12:49:57.981Z,36.9
2019-05-19T12:51:10.171Z,34.6
2019-05-19T12:52:22.363Z,32
2019-05-19T12:53:34.571Z,35.8
2019-05-19T12:54:46.770Z,32.6
2019-05-19T12:55:58.971Z,34.2
2019-05-19T12:57:11.170Z,34.1
2019-05-19T12:58:23.381Z,34.6
2019-05-19T12:59:35.571Z,30.3
2019-05-19T13:00:47.770Z,30.5
2019-05-19T13:01:59.975Z,30.4
2019-05-19T13:03:12.170Z,30.4
2019-05-19T13:04:24.372Z,30.3
2019-05-19T13:05:36.557Z,29.9
2019-05-19T13:06:48.762Z,28.6
2019-05-19T13:08:00.959Z,30
2019-05-19T13:09:13.159Z,27.2
2019-05-19T13:10:25.359Z,28
2019-05-19T13:11:37.558Z,28.4
2019-05-19T13:12:49.758Z,27.9
2019-05-19T13:14:01.961Z,27.6
2019-05-19T13:15:14.153Z,28.2
2019-05-19T13:16:26.359Z,27.1
2019-05-19T13:17:38.558Z,29.3
2019-05-19T13:18:50.759Z,26.8
2019-05-19T13:20:02.950Z,29.9
2019-05-19T13:21:15.142Z,28.1
2019-05-19T13:22:27.351Z,27
2019-05-19T13:23:39.547Z,28.7
2019-05-19T13:24:51.750Z,28.9
2019-05-19T13:26:03.947Z,28.9
2019-05-19T13:27:16.150Z,27.7
2019-05-19T13:28:28.352Z,29.4
2019-05-19T13:29:40.547Z,27.9
2019-05-19T13:30:52.749Z,28.6
2019-05-19T13:32:04.095Z,29.9
2019-05-19T13:34:29.338Z,28.3
2019-05-19T13:35:41.538Z,29.9
2019-05-19T13:36:53.737Z,29.2
2019-05-19T13:38:05.939Z,28.1
2019-05-19T13:39:18.137Z,31.7
2019-05-19T13:41:42.541Z,30
2019-05-19T13:42:54.739Z,28.6
2019-05-19T13:45:19.139Z,30.2
2019-05-19T13:46:31.033Z,28.5
2019-05-19T13:47:43.537Z,30.1
2019-05-19T13:48:55.726Z,29.9
2019-05-19T13:50:07.092Z,28.5
2019-05-19T13:51:20.128Z,28.5
2019-05-19T13:52:32.032Z,27
2019-05-19T13:53:44.527Z,26
2019-05-19T13:54:56.725Z,28.8
2019-05-19T13:56:08.925Z,27
2019-05-19T13:57:21.129Z,26.6
2019-05-19T13:58:33.327Z,25.7
2019-05-19T13:59:45.525Z,28.6
2019-05-19T14:00:57.728Z,26.5
2019-05-19T14:02:09.918Z,30.3
2019-05-19T14:03:22.113Z,26.8
2019-05-19T14:04:34.316Z,29.7
2019-05-19T14:05:46.515Z,29.4
2019-05-19T14:06:58.718Z,29
2019-05-19T14:08:10.921Z,30.9
2019-05-19T14:09:23.112Z,28.4
2019-05-19T14:10:35.317Z,28.6
2019-05-19T14:11:47.518Z,28.4
2019-05-19T14:12:59.709Z,26.1
2019-05-19T14:14:11.919Z,25.7
2019-05-19T14:15:24.109Z,27.5
2019-05-19T14:16:36.307Z,26.5
2019-05-19T14:17:48.507Z,25.8
2019-05-19T14:19:00.707Z,25.8
2019-05-19T14:20:12.906Z,26.8
2019-05-19T14:21:25.108Z,27.8
2019-05-19T14:22:37.308Z,25.9
2019-05-19T14:23:49.504Z,26
2019-05-19T14:25:01.711Z,24.8
2019-05-19T14:26:13.902Z,26.9
2019-05-19T14:27:26.106Z,25.8
2019-05-19T14:28:38.310Z,24.1
2019-05-19T14:29:50.506Z,25.3
2019-05-19T14:31:02.707Z,24.9
2019-05-19T14:32:14.891Z,26
2019-05-19T14:33:27.096Z,25.1
2019-05-19T14:34:39.702Z,25.1
2019-05-19T14:35:51.924Z,25
2019-05-19T14:37:03.698Z,24.2
2019-05-19T14:38:15.898Z,23.7
2019-05-19T14:39:28.097Z,24.9
2019-05-19T14:40:40.298Z,25.1
2019-05-19T14:41:52.494Z,25
2019-05-19T14:43:04.688Z,25.2
2019-05-19T14:44:16.888Z,24.6
2019-05-19T14:45:29.123Z,24.2
2019-05-19T14:46:41.287Z,25.6
2019-05-19T14:47:53.484Z,25.1
2019-05-19T14:49:05.686Z,24.3
2019-05-19T14:50:17.889Z,24.5
2019-05-19T14:51:30.085Z,25.6
2019-05-19T14:52:42.663Z,27.5
2019-05-19T14:53:54.495Z,26.6
2019-05-19T14:55:06.685Z,27.8
2019-05-19T14:56:18.889Z,26.5
2019-05-19T14:57:31.000Z,27.2
2019-05-19T14:58:43.270Z,26.1
2019-05-19T14:59:55.540Z,27.2
2019-05-19T15:01:07.676Z,26.2
2019-05-19T15:02:19.876Z,28.4
2019-05-19T15:03:32.076Z,25.9
2019-05-19T15:04:44.276Z,28.8
2019-05-19T15:05:56.466Z,27.5
2019-05-19T15:07:08.674Z,25.3
2019-05-19T15:08:20.874Z,26.9
2019-05-19T15:09:33.076Z,25.1
2019-05-19T15:10:45.267Z,25.9
2019-05-19T15:11:57.460Z,26.8
2019-05-19T15:13:09.066Z,25.6
2019-05-19T15:14:21.866Z,25.6
2019-05-19T15:15:34.058Z,25.7
2019-05-19T15:16:46.263Z,27.5
2019-05-19T15:17:58.466Z,25.6
2019-05-19T15:19:10.066Z,25.9
2019-05-19T15:20:22.086Z,26.5
2019-05-19T15:21:35.060Z,26
2019-05-19T15:22:47.264Z,24.4
2019-05-19T15:23:59.454Z,24.3
2019-05-19T15:25:11.654Z,24.4
2019-05-19T15:26:23.085Z,24.7
2019-05-19T15:27:36.075Z,24.3
2019-05-19T15:28:48.257Z,25.2
2019-05-19T15:30:00.458Z,25.9
2019-05-19T15:31:12.659Z,26.9
2019-05-19T15:32:24.856Z,25.5
2019-05-19T15:33:37.005Z,25.4
2019-05-19T15:34:49.250Z,28
2019-05-19T15:36:01.452Z,28.4
2019-05-19T15:37:13.646Z,28
2019-05-19T15:38:25.838Z,27.9
2019-05-19T15:39:38.049Z,26.7
2019-05-19T15:40:50.246Z,28.4
2019-05-19T15:42:02.456Z,27.3
2019-05-19T15:43:14.647Z,27.9
2019-05-19T15:44:26.836Z,26.7
2019-05-19T15:45:39.061Z,26.8
2019-05-19T15:46:51.244Z,28.8
2019-05-19T15:48:03.444Z,26.5
2019-05-19T15:49:15.006Z,31.1
2019-05-19T15:50:27.838Z,29.2
2019-05-19T15:51:40.030Z,28.9
2019-05-19T15:52:52.243Z,26.9
2019-05-19T15:54:04.436Z,27.9
2019-05-19T15:55:16.636Z,29.1
2019-05-19T15:56:28.839Z,28.1
2019-05-19T15:57:41.028Z,28.8
2019-05-19T15:58:53.225Z,28.2
2019-05-19T16:00:05.429Z,28.2
2019-05-19T16:01:17.622Z,29.4
2019-05-19T16:02:29.826Z,28.1